createdAt,value
2023-04-12T00:01:01.002Z,99037.20
2023-04-12T00:02:04.188Z,99037.72
2023-04-12T00:03:06.663Z,99045.34
2023-04-12T00:04:17.357Z,99031.13
2023-04-12T00:05:21.679Z,99041.03
2023-04-12T00:06:24.285Z,99022.75
2023-04-12T00:07:26.210Z,99035.96
2023-04-12T00:08:29.308Z,99031.65
2023-04-12T00:09:31.911Z,99031.89
2023-04-12T00:10:34.225Z,99037.48
2023-04-12T00:11:36.210Z,99026.06
2023-04-12T00:12:38.515Z,99031.13
2023-04-12T00:13:49.973Z,99036.72
2023-04-12T00:14:51.991Z,99029.61
2023-04-12T00:15:53.978Z,99031.41
2023-04-12T00:16:56.554Z,99022.27
2023-04-12T00:17:58.567Z,99017.19
2023-04-12T00:19:00.563Z,99012.88
2023-04-12T00:20:03.971Z,99025.87
2023-04-12T00:21:07.288Z,99016.22
2023-04-12T00:22:10.332Z,99017.49
2023-04-12T00:23:13.433Z,99015.45
2023-04-12T00:24:15.530Z,99019.77
2023-04-12T00:25:17.577Z,99012.66
2023-04-12T00:26:20.272Z,99016.98
2023-04-12T00:27:22.332Z,99014.18
2023-04-12T00:28:24.929Z,99007.08
2023-04-12T00:29:27.387Z,99012.66
2023-04-12T00:30:30.369Z,99003.28
2023-04-12T00:31:32.527Z,99006.59
2023-04-12T00:32:37.246Z,99006.59
2023-04-12T00:33:39.615Z,98999.48
2023-04-12T00:34:42.075Z,99005.08
2023-04-12T00:35:43.972Z,99001.52
2023-04-12T00:36:47.000Z,98999.23
2023-04-12T00:37:50.555Z,99000.00
2023-04-12T00:38:53.235Z,99010.42
2023-04-12T00:39:55.163Z,98999.75
2023-04-12T00:40:57.706Z,99003.06
2023-04-12T00:42:04.832Z,98989.09
2023-04-12T00:43:09.979Z,98997.48
2023-04-12T00:44:12.129Z,98989.09
2023-04-12T00:45:14.062Z,98993.92
2023-04-12T00:46:17.764Z,98992.66
2023-04-12T00:47:20.158Z,98992.66
2023-04-12T00:48:23.901Z,99003.83
2023-04-12T00:49:28.145Z,98987.06
2023-04-12T00:50:30.900Z,98997.48
2023-04-12T00:51:33.117Z,98998.23
2023-04-12T00:52:35.057Z,98997.48
2023-04-12T00:53:37.553Z,98997.48
2023-04-12T00:54:41.044Z,98994.69
2023-04-12T00:55:44.179Z,99000.79
2023-04-12T00:56:46.279Z,98998.75
2023-04-12T00:57:48.242Z,99002.83
2023-04-12T00:58:50.124Z,98993.69
2023-04-12T00:59:52.993Z,98992.16
2023-04-12T01:00:55.214Z,98992.16
2023-04-12T01:01:57.591Z,99000.55
2023-04-12T01:03:00.068Z,98997.51
2023-04-12T01:04:02.118Z,98993.95
2023-04-12T01:05:06.430Z,98989.89
2023-04-12T01:06:34.102Z,98991.92
2023-04-12T01:07:54.475Z,98986.85
2023-04-12T01:09:20.272Z,98990.41
2023-04-12T01:10:46.129Z,99000.09
2023-04-12T01:11:59.428Z,98981.81
2023-04-12T01:13:18.323Z,98990.70
2023-04-12T01:15:34.764Z,98979.20
2023-04-12T01:17:01.501Z,98977.23
2023-04-12T01:18:13.868Z,98977.74
2023-04-12T01:19:35.601Z,98979.77
2023-04-12T01:20:43.064Z,98981.05
2023-04-12T01:21:54.319Z,98975.22
2023-04-12T01:23:12.263Z,98976.25
2023-04-12T01:24:33.786Z,98978.28
2023-04-12T01:25:56.326Z,98964.08
2023-04-12T01:26:59.169Z,98960.53
2023-04-12T01:28:05.385Z,98967.39
2023-04-12T01:29:09.273Z,98961.05
2023-04-12T01:30:15.342Z,98966.63
2023-04-12T01:31:17.887Z,98967.91
2023-04-12T01:32:20.182Z,98962.10
2023-04-12T01:33:21.954Z,98966.17
2023-04-12T01:34:24.762Z,98957.79
2023-04-12T01:35:30.392Z,98962.62
2023-04-12T01:36:33.030Z,98949.41
2023-04-12T01:37:37.227Z,98955.00
2023-04-12T01:38:40.713Z,98954.23
2023-04-12T01:39:43.215Z,98951.20
2023-04-12T01:40:45.387Z,98954.00
2023-04-12T01:41:47.368Z,98954.52
2023-04-12T01:42:49.414Z,98947.66
2023-04-12T01:43:51.468Z,98947.66
2023-04-12T01:44:53.531Z,98942.58
2023-04-12T01:45:55.811Z,98951.72
2023-04-12T01:46:58.563Z,98944.61
2023-04-12T01:48:01.331Z,98940.55
2023-04-12T01:49:03.344Z,98937.00
2023-04-12T01:50:18.677Z,98941.06
2023-04-12T01:51:51.871Z,98934.72
2023-04-12T01:53:12.197Z,98933.96
2023-04-12T01:55:27.382Z,98928.05
2023-04-12T01:56:31.622Z,98934.48
2023-04-12T01:57:33.643Z,98927.37
2023-04-12T01:58:36.185Z,98923.06
2023-04-12T01:59:41.789Z,98927.89
2023-04-12T02:00:44.893Z,98926.37
2023-04-12T02:01:47.105Z,98928.41
2023-04-12T02:02:49.389Z,98921.55
2023-04-12T02:03:51.957Z,98936.78
2023-04-12T02:04:54.316Z,98925.61
2023-04-12T02:05:57.461Z,98924.09
2023-04-12T02:06:59.529Z,98926.13
2023-04-12T02:08:02.177Z,98921.82
2023-04-12T02:09:05.560Z,98921.82
2023-04-12T02:10:13.990Z,98921.82
2023-04-12T02:11:15.964Z,98925.88
2023-04-12T02:12:19.377Z,98924.37
2023-04-12T02:13:21.446Z,98920.30
2023-04-12T02:14:23.413Z,98915.99
2023-04-12T02:15:28.709Z,98919.55
2023-04-12T02:16:31.446Z,98912.44
2023-04-12T02:17:34.189Z,98910.41
2023-04-12T02:18:36.732Z,98919.55
2023-04-12T02:19:38.971Z,98908.16
2023-04-12T02:20:41.620Z,98916.53
2023-04-12T02:21:44.559Z,98910.19
2023-04-12T02:22:46.775Z,98912.23
2023-04-12T02:23:48.703Z,98906.64
2023-04-12T02:24:50.662Z,98904.37
2023-04-12T02:25:53.479Z,98900.81
2023-04-12T02:26:58.501Z,98901.58
2023-04-12T02:28:00.984Z,98898.27
2023-04-12T02:29:04.552Z,98902.33
2023-04-12T02:30:09.055Z,98907.16
2023-04-12T02:31:12.235Z,98900.81
2023-04-12T02:32:15.621Z,98897.27
2023-04-12T02:33:18.427Z,98896.50
2023-04-12T02:34:20.854Z,98902.09
2023-04-12T02:35:25.492Z,98897.78
2023-04-12T02:36:30.052Z,98897.78
2023-04-12T02:37:32.107Z,98899.05
2023-04-12T02:38:35.287Z,98895.50
2023-04-12T02:39:38.113Z,98900.33
2023-04-12T02:40:41.044Z,98893.98
2023-04-12T02:41:45.145Z,98896.78
2023-04-12T02:42:48.061Z,98901.60
2023-04-12T02:43:51.750Z,98899.57
2023-04-12T02:44:54.065Z,98896.53
2023-04-12T02:45:56.679Z,98900.09
2023-04-12T02:46:59.469Z,98896.02
2023-04-12T02:48:02.539Z,98900.09
2023-04-12T02:49:05.124Z,98892.47
2023-04-12T02:50:10.289Z,98899.33
2023-04-12T02:51:16.904Z,98891.71
2023-04-12T02:52:19.170Z,98889.44
2023-04-12T02:53:26.531Z,98888.16
2023-04-12T02:54:30.604Z,98888.16
2023-04-12T02:55:33.302Z,98891.47
2023-04-12T02:56:36.720Z,98887.16
2023-04-12T02:57:40.618Z,98886.40
2023-04-12T02:58:43.001Z,98884.88
2023-04-12T02:59:45.952Z,98882.85
2023-04-12T03:00:50.139Z,98882.61
2023-04-12T03:01:54.721Z,98880.33
2023-04-12T03:03:02.438Z,98880.33
2023-04-12T03:04:05.672Z,98884.94
2023-04-12T03:05:15.736Z,98877.08
2023-04-12T03:06:18.670Z,98881.66
2023-04-12T03:07:21.284Z,98880.14
2023-04-12T03:08:28.407Z,98873.05
2023-04-12T03:09:32.493Z,98884.20
2023-04-12T03:10:34.904Z,98882.42
2023-04-12T03:11:38.030Z,98878.59
2023-04-12T03:12:40.758Z,98879.81
2023-04-12T03:13:53.516Z,98870.41
2023-04-12T03:14:56.056Z,98869.38
2023-04-12T03:16:00.122Z,98873.17
2023-04-12T03:17:04.677Z,98868.34
2023-04-12T03:18:08.041Z,98874.17
2023-04-12T03:19:12.296Z,98870.11
2023-04-12T03:20:15.779Z,98870.86
2023-04-12T03:21:19.674Z,98872.38
2023-04-12T03:22:22.134Z,98871.87
2023-04-12T03:23:26.051Z,98864.01
2023-04-12T03:24:29.941Z,98870.34
2023-04-12T03:25:32.643Z,98866.80
2023-04-12T03:26:36.645Z,98872.38
2023-04-12T03:27:40.691Z,98872.90
2023-04-12T03:28:42.734Z,98870.11
2023-04-12T03:29:44.795Z,98872.14
2023-04-12T03:30:47.653Z,98868.59
2023-04-12T03:31:50.743Z,98864.28
2023-04-12T03:32:53.631Z,98868.59
2023-04-12T03:33:57.148Z,98859.45
2023-04-12T03:35:00.026Z,98858.18
2023-04-12T03:36:03.408Z,98853.11
2023-04-12T03:37:07.393Z,98854.63
2023-04-12T03:38:14.121Z,98857.42
2023-04-12T03:39:17.135Z,98852.59
2023-04-12T03:40:20.570Z,98851.84
2023-04-12T03:41:24.904Z,98847.02
2023-04-12T03:42:33.550Z,98854.63
2023-04-12T03:43:35.063Z,98853.36
2023-04-12T03:44:38.962Z,98847.77
2023-04-12T03:45:42.884Z,98847.77
2023-04-12T03:46:45.947Z,98852.59
2023-04-12T03:47:48.750Z,98842.19
2023-04-12T03:48:51.341Z,98845.73
2023-04-12T03:50:10.223Z,98853.36
2023-04-12T03:50:59.679Z,98847.02
2023-04-12T03:53:20.713Z,98850.98
2023-04-12T03:54:23.064Z,98854.63
2023-04-12T03:55:35.560Z,98849.81
2023-04-12T03:56:39.201Z,98844.98
2023-04-12T03:57:43.708Z,98854.12
2023-04-12T03:58:47.330Z,98855.63
2023-04-12T03:59:50.075Z,98848.53
2023-04-12T04:00:54.219Z,98848.02
2023-04-12T04:01:56.491Z,98855.39
2023-04-12T04:03:00.012Z,98853.88
2023-04-12T04:04:03.656Z,98846.26
2023-04-12T04:05:07.909Z,98844.73
2023-04-12T04:06:11.521Z,98849.56
2023-04-12T04:07:14.182Z,98838.40
2023-04-12T04:08:18.329Z,98851.59
2023-04-12T04:09:22.589Z,98841.19
2023-04-12T04:11:37.511Z,98839.06
2023-04-12T04:12:41.666Z,98835.85
2023-04-12T04:13:45.560Z,98847.26
2023-04-12T04:14:49.758Z,98848.02
2023-04-12T04:16:04.812Z,98841.67
2023-04-12T04:17:07.002Z,98843.19
2023-04-12T04:18:09.757Z,98839.64
2023-04-12T04:19:12.117Z,98839.64
2023-04-12T04:20:17.113Z,98838.37
2023-04-12T04:21:20.943Z,98838.37
2023-04-12T04:22:24.941Z,98839.12
2023-04-12T04:23:27.943Z,98832.23
2023-04-12T04:24:31.028Z,98837.06
2023-04-12T04:25:35.376Z,98829.45
2023-04-12T04:26:40.874Z,98837.30
2023-04-12T04:27:44.974Z,98839.33
2023-04-12T04:28:48.467Z,98838.81
2023-04-12T04:29:52.291Z,98841.61
2023-04-12T04:30:54.997Z,98835.51
2023-04-12T04:31:58.117Z,98829.92
2023-04-12T04:33:01.385Z,98821.55
2023-04-12T04:34:04.521Z,98835.51
2023-04-12T04:35:07.996Z,98830.69
2023-04-12T04:36:13.501Z,98828.65
2023-04-12T04:37:17.451Z,98837.02
2023-04-12T04:38:19.836Z,98834.99
2023-04-12T04:39:22.823Z,98834.23
2023-04-12T04:40:25.236Z,98839.06
2023-04-12T04:41:29.367Z,98834.75
2023-04-12T04:42:33.587Z,98831.20
2023-04-12T04:43:37.194Z,98831.20
2023-04-12T04:44:39.627Z,98825.62
2023-04-12T04:45:43.597Z,98837.55
2023-04-12T04:46:46.077Z,98834.75
2023-04-12T04:47:48.163Z,98833.23
2023-04-12T04:48:50.818Z,98829.17
2023-04-12T04:49:53.404Z,98829.69
2023-04-12T04:51:00.572Z,98837.55
2023-04-12T04:52:03.654Z,98827.89
2023-04-12T04:53:07.381Z,98828.65
2023-04-12T04:54:09.373Z,98833.48
2023-04-12T04:55:14.105Z,98834.23
2023-04-12T04:56:18.433Z,98835.75
2023-04-12T04:57:21.910Z,98836.27
2023-04-12T04:58:24.437Z,98832.20
2023-04-12T04:59:26.836Z,98834.23
2023-04-12T05:00:38.286Z,98835.51
2023-04-12T05:01:40.555Z,98822.83
2023-04-12T05:02:43.206Z,98838.30
2023-04-12T05:03:46.656Z,98835.51
2023-04-12T05:04:49.340Z,98831.96
2023-04-12T05:05:54.442Z,98831.20
2023-04-12T05:06:56.842Z,98828.41
2023-04-12T05:08:00.488Z,98829.92
2023-04-12T05:09:04.368Z,98828.65
2023-04-12T05:10:10.068Z,98827.89
2023-04-12T05:11:14.465Z,98828.65
2023-04-12T05:12:16.691Z,98837.78
2023-04-12T05:13:20.579Z,98826.61
2023-04-12T05:14:24.078Z,98832.95
2023-04-12T05:15:26.174Z,98831.69
2023-04-12T05:16:29.055Z,98827.37
2023-04-12T05:17:31.263Z,98834.99
2023-04-12T05:18:33.493Z,98836.51
2023-04-12T05:19:35.631Z,98836.51
2023-04-12T05:20:39.197Z,98835.75
2023-04-12T05:21:41.137Z,98828.13
2023-04-12T05:22:44.134Z,98827.37
2023-04-12T05:23:46.637Z,98832.95
2023-04-12T05:24:49.265Z,98832.20
2023-04-12T05:25:51.359Z,98828.65
2023-04-12T05:26:54.803Z,98829.41
2023-04-12T05:27:57.792Z,98829.41
2023-04-12T05:29:00.320Z,98824.58
2023-04-12T05:30:03.995Z,98821.79
2023-04-12T05:31:06.528Z,98824.58
2023-04-12T05:32:12.182Z,98822.30
2023-04-12T05:33:14.671Z,98820.27
2023-04-12T05:34:18.564Z,98821.03
2023-04-12T05:35:23.041Z,98821.79
2023-04-12T05:36:28.032Z,98812.66
2023-04-12T05:37:31.153Z,98824.06
2023-04-12T05:38:33.675Z,98819.75
2023-04-12T05:39:38.169Z,98826.09
2023-04-12T05:40:41.358Z,98817.72
2023-04-12T05:41:43.640Z,98816.96
2023-04-12T05:42:46.161Z,98818.48
2023-04-12T05:43:48.733Z,98816.20
2023-04-12T05:44:51.640Z,98817.48
2023-04-12T05:45:55.687Z,98814.69
2023-04-12T05:46:58.612Z,98819.00
2023-04-12T05:48:00.938Z,98814.69
2023-04-12T05:49:03.598Z,98815.20
2023-04-12T05:50:07.739Z,98807.59
2023-04-12T05:51:11.924Z,98810.38
2023-04-12T05:52:14.391Z,98808.34
2023-04-12T05:53:16.615Z,98811.89
2023-04-12T05:54:19.971Z,98810.63
2023-04-12T05:55:22.655Z,98814.17
2023-04-12T05:56:24.700Z,98809.86
2023-04-12T05:57:26.794Z,98803.00
2023-04-12T05:58:29.323Z,98811.37
2023-04-12T05:59:31.378Z,98803.00
2023-04-12T06:00:34.733Z,98812.89
2023-04-12T06:01:37.237Z,98798.94
2023-04-12T06:02:40.154Z,98804.52
2023-04-12T06:03:44.905Z,98804.52
2023-04-12T06:04:51.018Z,98798.94
2023-04-12T06:05:52.851Z,98798.17
2023-04-12T06:06:54.896Z,98794.11
2023-04-12T06:07:56.957Z,98794.63
2023-04-12T06:08:59.106Z,98798.94
2023-04-12T06:10:03.652Z,98796.90
2023-04-12T06:11:05.964Z,98791.31
2023-04-12T06:12:08.602Z,98796.90
2023-04-12T06:13:11.146Z,98800.45
2023-04-12T06:14:15.076Z,98794.11
2023-04-12T06:15:17.144Z,98792.07
2023-04-12T06:16:19.350Z,98800.45
2023-04-12T06:17:21.489Z,98793.34
2023-04-12T06:18:24.039Z,98792.07
2023-04-12T06:19:26.575Z,98797.66
2023-04-12T06:20:29.508Z,98794.11
2023-04-12T06:21:32.248Z,98792.07
2023-04-12T06:22:35.651Z,98794.87
2023-04-12T06:23:37.749Z,98786.48
2023-04-12T06:24:39.898Z,98792.07
2023-04-12T06:25:42.467Z,98794.11
2023-04-12T06:26:45.188Z,98785.73
2023-04-12T06:27:48.041Z,98794.87
2023-04-12T06:28:51.628Z,98782.94
2023-04-12T06:29:54.088Z,98781.66
2023-04-12T06:30:56.808Z,98790.80
2023-04-12T06:31:59.459Z,98781.66
2023-04-12T06:33:01.737Z,98785.97
2023-04-12T06:34:04.224Z,98788.00
2023-04-12T06:35:07.648Z,98785.21
2023-04-12T06:36:11.515Z,98777.59
2023-04-12T06:37:14.744Z,98781.14
2023-04-12T06:38:19.745Z,98781.14
2023-04-12T06:39:21.865Z,98772.77
2023-04-12T06:40:23.911Z,98778.34
2023-04-12T06:41:26.080Z,98783.94
2023-04-12T06:42:29.962Z,98783.94
2023-04-12T06:43:32.021Z,98779.86
2023-04-12T06:44:33.957Z,98781.90
2023-04-12T06:45:36.562Z,98772.77
2023-04-12T06:46:38.708Z,98784.69
2023-04-12T06:47:40.932Z,98786.73
2023-04-12T06:48:42.893Z,98778.34
2023-04-12T06:49:45.326Z,98778.34
2023-04-12T06:50:47.947Z,98778.34
2023-04-12T06:51:50.036Z,98781.14
2023-04-12T06:52:51.970Z,98784.69
2023-04-12T06:53:53.923Z,98781.14
2023-04-12T06:54:56.464Z,98778.34
2023-04-12T06:56:04.880Z,98783.94
2023-04-12T06:57:09.953Z,98782.66
2023-04-12T06:58:14.203Z,98778.34
2023-04-12T06:59:16.731Z,98772.77
2023-04-12T07:00:22.566Z,98769.97
2023-04-12T07:01:28.365Z,98776.08
2023-04-12T07:02:30.685Z,98776.84
2023-04-12T07:03:33.751Z,98776.84
2023-04-12T07:04:36.034Z,98777.59
2023-04-12T07:05:38.643Z,98771.25
2023-04-12T07:06:45.563Z,98772.01
2023-04-12T07:07:47.680Z,98770.73
2023-04-12T07:08:49.530Z,98774.80
2023-04-12T07:09:57.415Z,98778.34
2023-04-12T07:11:08.600Z,98770.73
2023-04-12T07:12:05.005Z,98773.00
2023-04-12T07:13:08.701Z,98771.48
2023-04-12T07:14:13.420Z,98767.18
2023-04-12T07:15:15.611Z,98765.91
2023-04-12T07:16:18.009Z,98768.70
2023-04-12T07:17:20.017Z,98782.66
2023-04-12T07:18:21.983Z,98783.41
2023-04-12T07:19:24.201Z,98770.21
2023-04-12T07:20:28.282Z,98779.34
2023-04-12T07:21:31.327Z,98776.55
2023-04-12T07:22:33.612Z,98766.66
2023-04-12T07:23:35.545Z,98764.63
2023-04-12T07:24:37.403Z,98766.14
2023-04-12T07:25:39.396Z,98770.97
2023-04-12T07:26:42.624Z,98769.69
2023-04-12T07:27:44.645Z,98764.63
2023-04-12T07:28:46.663Z,98768.70
2023-04-12T07:29:51.414Z,98768.70
2023-04-12T07:30:53.645Z,98768.70
2023-04-12T07:31:55.607Z,98765.14
2023-04-12T07:33:08.391Z,98767.42
2023-04-12T07:34:01.594Z,98773.00
2023-04-12T07:35:05.442Z,98769.45
2023-04-12T07:36:09.520Z,98772.25
2023-04-12T07:37:13.776Z,98765.91
2023-04-12T07:38:16.997Z,98768.70
2023-04-12T07:39:21.998Z,98766.66
2023-04-12T07:40:24.524Z,98769.45
2023-04-12T07:41:26.855Z,98768.70
2023-04-12T07:42:28.793Z,98774.28
2023-04-12T07:43:30.966Z,98767.94
2023-04-12T07:44:37.075Z,98778.34
2023-04-12T07:45:39.245Z,98774.28
2023-04-12T07:46:42.083Z,98769.22
2023-04-12T07:47:46.029Z,98766.42
2023-04-12T07:48:49.248Z,98765.14
2023-04-12T07:49:51.531Z,98762.88
2023-04-12T07:50:54.762Z,98762.88
2023-04-12T07:51:58.948Z,98764.91
2023-04-12T07:53:24.289Z,98760.84
2023-04-12T07:54:29.561Z,98761.59
2023-04-12T07:55:34.099Z,98770.73
2023-04-12T07:56:39.087Z,98766.42
2023-04-12T07:57:46.005Z,98759.56
2023-04-12T07:58:48.528Z,98753.22
2023-04-12T07:59:51.049Z,98755.25
2023-04-12T08:00:54.304Z,98764.63
2023-04-12T08:02:04.025Z,98763.87
2023-04-12T08:03:13.372Z,98764.63
2023-04-12T08:04:15.731Z,98762.59
2023-04-12T08:05:20.072Z,98766.90
2023-04-12T08:06:22.752Z,98762.83
2023-04-12T08:07:28.910Z,98762.83
2023-04-12T08:08:48.807Z,98768.41
2023-04-12T08:09:57.435Z,98768.41
2023-04-12T08:11:10.486Z,98760.80
2023-04-12T08:12:12.867Z,98764.34
2023-04-12T08:13:14.833Z,98760.80
2023-04-12T08:14:22.216Z,98757.24
2023-04-12T08:15:24.949Z,98759.28
2023-04-12T08:16:32.291Z,98759.28
2023-04-12T08:17:36.636Z,98760.03
2023-04-12T08:18:42.663Z,98754.97
2023-04-12T08:19:44.669Z,98759.28
2023-04-12T08:21:00.005Z,98755.73
2023-04-12T08:22:04.193Z,98752.94
2023-04-12T08:23:08.313Z,98764.63
2023-04-12T08:24:13.092Z,98747.88
2023-04-12T08:25:15.423Z,98755.73
2023-04-12T08:26:19.287Z,98757.24
2023-04-12T08:27:24.962Z,98758.76
2023-04-12T08:28:29.153Z,98755.20
2023-04-12T08:29:31.336Z,98755.20
2023-04-12T08:30:38.456Z,98756.72
2023-04-12T08:31:44.707Z,98751.14
2023-04-12T08:32:47.415Z,98753.93
2023-04-12T08:33:55.611Z,98751.90
2023-04-12T08:34:58.918Z,98751.90
2023-04-12T08:36:04.466Z,98744.28
2023-04-12T08:37:06.537Z,98757.48
2023-04-12T08:38:13.700Z,98757.48
2023-04-12T08:39:19.309Z,98750.37
2023-04-12T08:40:23.282Z,98747.83
2023-04-12T08:41:26.299Z,98744.28
2023-04-12T08:42:34.853Z,98742.24
2023-04-12T08:43:40.109Z,98740.73
2023-04-12T08:44:44.004Z,98744.28
2023-04-12T08:45:48.633Z,98739.45
2023-04-12T08:46:55.985Z,98745.03
2023-04-12T08:48:04.737Z,98745.77
2023-04-12T08:49:10.563Z,98746.52
2023-04-12T08:50:14.554Z,98745.77
2023-04-12T08:51:21.736Z,98741.69
2023-04-12T08:52:25.808Z,98740.94
2023-04-12T08:53:28.355Z,98736.11
2023-04-12T08:54:30.668Z,98731.27
2023-04-12T08:55:37.141Z,98740.17
2023-04-12T08:56:43.286Z,98736.11
2023-04-12T08:57:52.303Z,98736.11
2023-04-12T08:58:57.853Z,98736.86
2023-04-12T09:00:02.310Z,98736.11
2023-04-12T09:01:13.418Z,98722.90
2023-04-12T09:02:17.826Z,98734.07
2023-04-12T09:03:21.433Z,98741.69
2023-04-12T09:04:26.310Z,98733.31
2023-04-12T09:05:29.547Z,98730.52
2023-04-12T09:06:41.169Z,98729.00
2023-04-12T09:07:43.165Z,98732.34
2023-04-12T09:11:38.798Z,98726.00
2023-04-12T09:12:48.435Z,98726.00
2023-04-12T09:13:52.997Z,98720.42
2023-04-12T09:16:17.447Z,98708.88
2023-04-12T09:17:27.294Z,98719.66
2023-04-12T09:18:32.850Z,98718.91
2023-04-12T09:19:36.844Z,98712.56
2023-04-12T09:20:39.438Z,98713.33
2023-04-12T09:21:54.588Z,98715.59
2023-04-12T09:22:56.990Z,98721.17
2023-04-12T09:25:17.417Z,98719.53
2023-04-12T09:26:30.192Z,98720.42
2023-04-12T09:27:51.957Z,98714.08
2023-04-12T09:28:54.490Z,98707.22
2023-04-12T09:30:09.889Z,98711.28
2023-04-12T09:31:16.575Z,98708.49
2023-04-12T09:32:26.026Z,98713.33
2023-04-12T09:33:37.599Z,98716.11
2023-04-12T09:34:39.968Z,98711.28
2023-04-12T09:35:44.367Z,98711.28
2023-04-12T09:36:49.498Z,98703.67
2023-04-12T09:38:07.904Z,98708.49
2023-04-12T09:39:13.006Z,98706.98
2023-04-12T09:40:16.753Z,98705.70
2023-04-12T09:41:23.700Z,98706.45
2023-04-12T09:42:33.664Z,98707.97
2023-04-12T09:43:38.559Z,98718.39
2023-04-12T09:44:41.855Z,98707.22
2023-04-12T09:45:44.386Z,98713.55
2023-04-12T09:46:50.332Z,98701.08
2023-04-12T09:49:06.329Z,98704.52
2023-04-12T09:50:14.329Z,98703.34
2023-04-12T09:51:35.105Z,98702.59
2023-04-12T09:52:45.238Z,98703.34
2023-04-12T09:53:47.917Z,98715.52
2023-04-12T09:54:49.941Z,98707.13
2023-04-12T09:55:55.557Z,98702.55
2023-04-12T09:56:57.817Z,98706.09
2023-04-12T09:59:14.879Z,98706.02
2023-04-12T10:00:23.568Z,98708.36
2023-04-12T10:01:30.104Z,98708.36
2023-04-12T10:02:36.286Z,98708.36
2023-04-12T10:03:38.889Z,98705.05
2023-04-12T10:04:42.334Z,98705.80
2023-04-12T10:05:45.748Z,98703.77
2023-04-12T10:06:49.692Z,98706.56
2023-04-12T10:07:54.783Z,98706.56
2023-04-12T10:08:58.620Z,98700.97
2023-04-12T10:10:01.318Z,98701.73
2023-04-12T10:11:05.230Z,98696.91
2023-04-12T10:12:08.486Z,98699.70
2023-04-12T10:13:12.599Z,98702.48
2023-04-12T10:14:20.765Z,98699.70
2023-04-12T10:15:22.668Z,98703.24
2023-04-12T10:16:30.013Z,98705.28
2023-04-12T10:17:36.070Z,98713.66
2023-04-12T10:18:40.065Z,98703.01
2023-04-12T10:19:43.926Z,98703.77
2023-04-12T10:20:48.862Z,98705.05
2023-04-12T10:22:01.492Z,98699.98
2023-04-12T10:23:04.949Z,98694.40
2023-04-12T10:24:09.030Z,98699.98
2023-04-12T10:25:13.812Z,98712.67
2023-04-12T10:26:18.108Z,98707.84
2023-04-12T10:27:27.613Z,98703.01
2023-04-12T10:28:30.571Z,98710.63
2023-04-12T10:29:33.291Z,98705.28
2023-04-12T10:30:36.036Z,98702.48
2023-04-12T10:31:38.203Z,98696.91
2023-04-12T10:32:40.369Z,98712.91
2023-04-12T10:33:48.712Z,98703.01
2023-04-12T10:34:58.867Z,98704.52
2023-04-12T10:36:03.909Z,98703.77
2023-04-12T10:37:07.564Z,98692.59
2023-04-12T10:38:09.693Z,98710.11
2023-04-12T10:39:11.846Z,98702.25
2023-04-12T10:40:16.608Z,98700.22
2023-04-12T10:41:21.096Z,98698.70
2023-04-12T10:42:28.691Z,98697.42
2023-04-12T10:43:32.683Z,98696.67
2023-04-12T10:44:37.000Z,98698.18
2023-04-12T10:45:42.469Z,98697.42
2023-04-12T10:46:47.639Z,98698.94
2023-04-12T10:47:56.292Z,98700.97
2023-04-12T10:50:31.569Z,98696.55
2023-04-12T10:51:37.789Z,98696.14
2023-04-12T10:52:41.854Z,98696.91
2023-04-12T10:53:48.281Z,98691.31
2023-04-12T10:55:08.811Z,98694.11
2023-04-12T10:57:51.375Z,98703.13
2023-04-12T10:59:03.514Z,98681.66
2023-04-12T11:00:13.597Z,98695.63
2023-04-12T11:01:17.157Z,98715.93
2023-04-12T11:02:19.358Z,98696.91
2023-04-12T11:03:28.852Z,98706.80
2023-04-12T11:04:35.306Z,98692.83
2023-04-12T11:07:12.393Z,98696.03
2023-04-12T11:08:26.247Z,98696.91
2023-04-12T11:09:40.901Z,98699.70
2023-04-12T11:10:45.801Z,98703.24
2023-04-12T11:11:49.925Z,98690.80
2023-04-12T11:12:52.266Z,98706.04
2023-04-12T11:13:54.929Z,98697.66
2023-04-12T11:14:59.869Z,98694.87
2023-04-12T11:16:08.388Z,98694.87
2023-04-12T11:17:18.732Z,98703.24
2023-04-12T11:18:21.442Z,98696.91
2023-04-12T11:19:23.913Z,98692.59
2023-04-12T11:21:45.858Z,98687.95
2023-04-12T11:22:49.701Z,98690.09
2023-04-12T11:23:52.711Z,98693.64
2023-04-12T11:24:58.045Z,98689.34
2023-04-12T11:26:03.630Z,98689.34
2023-04-12T11:27:06.184Z,98690.84
2023-04-12T11:28:17.527Z,98692.88
2023-04-12T11:29:14.842Z,98700.51
2023-04-12T11:30:17.664Z,98690.84
2023-04-12T11:31:20.272Z,98680.95
2023-04-12T11:32:24.332Z,98691.38
2023-04-12T11:33:40.291Z,98690.09
2023-04-12T11:34:43.746Z,98683.75
2023-04-12T11:35:45.819Z,98694.16
2023-04-12T11:36:52.926Z,98690.61
2023-04-12T11:37:55.364Z,98684.27
2023-04-12T11:38:58.256Z,98681.48
2023-04-12T11:40:01.435Z,98690.61
2023-04-12T11:41:05.436Z,98688.34
2023-04-12T11:43:20.357Z,98678.34
2023-04-12T11:44:23.144Z,98690.37
2023-04-12T11:45:25.089Z,98695.96
2023-04-12T11:46:34.785Z,98685.03
2023-04-12T11:47:39.079Z,98686.77
2023-04-12T11:48:44.984Z,98688.28
2023-04-12T11:52:33.440Z,98687.24
2023-04-12T11:53:36.045Z,98686.72
2023-04-12T11:54:43.595Z,98681.66
2023-04-12T11:55:48.713Z,98684.45
2023-04-12T11:56:59.758Z,98681.42
2023-04-12T11:58:04.375Z,98675.60
2023-04-12T11:59:09.058Z,98682.47
2023-04-12T12:00:14.270Z,98671.82
2023-04-12T12:01:19.118Z,98673.86
2023-04-12T12:02:25.887Z,98673.09
2023-04-12T12:04:31.696Z,98675.89
2023-04-12T12:05:34.202Z,98675.89
2023-04-12T12:06:39.333Z,98669.55
2023-04-12T12:07:44.520Z,98666.00
2023-04-12T12:08:49.675Z,98673.63
2023-04-12T12:09:56.225Z,98668.56
2023-04-12T12:12:00.698Z,98677.46
2023-04-12T12:14:33.066Z,98665.71
2023-04-12T12:15:37.165Z,98666.61
2023-04-12T12:16:43.586Z,98659.51
2023-04-12T12:17:46.307Z,98664.86
2023-04-12T12:18:50.275Z,98667.89
2023-04-12T12:19:57.004Z,98656.72
2023-04-12T12:20:59.112Z,98660.27
2023-04-12T12:22:14.805Z,98660.27
2023-04-12T12:24:59.451Z,98649.48
2023-04-12T12:26:17.631Z,98655.44
2023-04-12T12:27:08.136Z,98644.27
2023-04-12T12:28:14.837Z,98648.57
2023-04-12T12:29:19.324Z,98650.61
2023-04-12T12:30:21.695Z,98647.81
2023-04-12T12:31:25.875Z,98650.81
2023-04-12T12:32:34.221Z,98652.13
2023-04-12T12:33:46.381Z,98645.78
2023-04-12T12:34:51.843Z,98647.06
2023-04-12T12:37:18.490Z,98647.44
2023-04-12T12:38:32.036Z,98651.13
2023-04-12T12:39:28.905Z,98649.09
2023-04-12T12:40:32.840Z,98641.48
2023-04-12T12:41:35.253Z,98644.79
2023-04-12T12:42:38.212Z,98636.41
2023-04-12T12:43:46.873Z,98633.62
2023-04-12T12:44:49.553Z,98634.90
2023-04-12T12:45:51.480Z,98639.96
2023-04-12T12:47:00.738Z,98628.80
2023-04-12T12:48:03.298Z,98628.03
2023-04-12T12:49:05.622Z,98636.64
2023-04-12T12:50:09.068Z,98637.41
2023-04-12T12:51:12.861Z,98629.03
2023-04-12T12:52:18.196Z,98633.33
2023-04-12T12:53:28.686Z,98633.33
2023-04-12T12:54:40.496Z,98622.89
2023-04-12T12:55:40.612Z,98622.16
2023-04-12T12:56:46.278Z,98626.44
2023-04-12T12:58:06.181Z,98625.16
2023-04-12T12:58:57.638Z,98632.78
2023-04-12T13:00:03.179Z,98627.95
2023-04-12T13:01:09.007Z,98627.19
2023-04-12T13:02:13.634Z,98621.61
2023-04-12T13:03:17.539Z,98617.53
2023-04-12T13:04:30.911Z,98616.25
2023-04-12T13:05:34.021Z,98617.02
2023-04-12T13:06:37.414Z,98618.29
2023-04-12T13:07:40.806Z,98615.50
2023-04-12T13:08:43.325Z,98617.02